Phlox, Wisconsin
Current Conditions -  °F | °C
As of 7:15 AM on Friday 24 Oct 2014 (Local Time) from KAIG Reporting Station
Moderate Fog Moderate Fog  
Wind Chill: 42°   Ceiling: 300
Heat Index: 42°   Visibility: 0.25mi
Dew Point: 42°   Wind: 0mph
Humidity: 100%   Direction: NA
Pressure: 30"   Gusts: NA
Location:  45.05°N, 89.01°W
Report Text: KAIG 241215Z AUTO 00000KT 1/4SM FG OVC003 06/06 A3000 RMK AO2 T00550055
Loading
Personal Weather Stations






























Interactive Weather Map
Tropical Storm Tracking
New forecast layout! Learn more

10-Day Weather Forecast

Advertisements
Track Severe Weather on mobile